createdAt,value
2023-04-10T00:00:36.255Z,7.90
2023-04-10T00:01:36.389Z,7.85
2023-04-10T00:02:36.431Z,7.95
2023-04-10T00:03:36.335Z,7.87
2023-04-10T00:04:36.311Z,7.93
2023-04-10T00:05:36.197Z,7.91
2023-04-10T00:06:36.185Z,7.91
2023-04-10T00:07:36.207Z,7.83
2023-04-10T00:08:36.181Z,7.85
2023-04-10T00:09:36.152Z,7.85
2023-04-10T00:10:36.152Z,7.85
2023-04-10T00:11:36.140Z,7.87
2023-04-10T00:12:36.114Z,7.77
2023-04-10T00:13:36.154Z,7.83
2023-04-10T00:14:36.095Z,7.79
2023-04-10T00:15:36.087Z,7.82
2023-04-10T00:16:36.137Z,7.85
2023-04-10T00:17:36.196Z,7.83
2023-04-10T00:18:36.059Z,7.76
2023-04-10T00:19:36.042Z,7.72
2023-04-10T00:20:36.072Z,7.72
2023-04-10T00:21:36.012Z,7.77
2023-04-10T00:22:36.008Z,7.72
2023-04-10T00:23:36.052Z,7.75
2023-04-10T00:24:35.986Z,7.60
2023-04-10T00:25:35.974Z,7.66
2023-04-10T00:26:35.960Z,7.70
2023-04-10T00:27:36.008Z,7.61
2023-04-10T00:28:35.945Z,7.58
2023-04-10T00:29:35.955Z,7.53
2023-04-10T00:30:35.950Z,7.50
2023-04-10T00:31:35.957Z,7.53
2023-04-10T00:32:35.931Z,7.56
2023-04-10T00:33:35.882Z,7.47
2023-04-10T00:34:35.942Z,7.54
2023-04-10T00:35:35.888Z,7.48
2023-04-10T00:36:35.877Z,7.54
2023-04-10T00:37:35.854Z,7.45
2023-04-10T00:38:36.779Z,7.45
2023-04-10T00:39:35.849Z,7.47
2023-04-10T00:40:35.866Z,7.57
2023-04-10T00:41:35.802Z,7.54
2023-04-10T00:42:35.787Z,7.39
2023-04-10T00:43:35.825Z,7.45
2023-04-10T00:44:35.771Z,7.57
2023-04-10T00:45:35.770Z,7.43
2023-04-10T00:46:36.087Z,7.56
2023-04-10T00:47:35.731Z,7.47
2023-04-10T00:48:35.720Z,7.39
2023-04-10T00:49:35.733Z,7.45
2023-04-10T00:50:35.703Z,7.47
2023-04-10T00:51:35.707Z,7.40
2023-04-10T00:52:35.671Z,7.40
2023-04-10T00:53:35.686Z,7.38
2023-04-10T00:54:35.653Z,7.38
2023-04-10T00:55:35.671Z,7.29
2023-04-10T00:56:35.626Z,7.32
2023-04-10T00:57:35.620Z,7.38
2023-04-10T00:58:35.671Z,7.33
2023-04-10T00:59:35.617Z,7.38
2023-04-10T01:00:35.587Z,7.38
2023-04-10T01:01:35.645Z,7.25
2023-04-10T01:02:35.688Z,7.25
2023-04-10T01:03:36.105Z,7.21
2023-04-10T01:04:35.662Z,7.29
2023-04-10T01:05:35.526Z,7.29
2023-04-10T01:06:35.533Z,7.20
2023-04-10T01:07:35.535Z,7.24
2023-04-10T01:08:35.508Z,7.36
2023-04-10T01:09:35.484Z,7.32
2023-04-10T01:10:35.484Z,7.28
2023-04-10T01:11:35.484Z,7.33
2023-04-10T01:12:35.447Z,7.33
2023-04-10T01:13:35.461Z,7.24
2023-04-10T01:14:35.431Z,7.21
2023-04-10T01:15:36.260Z,7.23
2023-04-10T01:16:35.438Z,7.23
2023-04-10T01:17:35.467Z,7.25
2023-04-10T01:18:35.392Z,7.21
2023-04-10T01:19:35.393Z,7.24
2023-04-10T01:20:35.362Z,7.18
2023-04-10T01:21:35.359Z,7.21
2023-04-10T01:22:35.363Z,7.14
2023-04-10T01:23:35.348Z,7.14
2023-04-10T01:24:35.316Z,7.13
2023-04-10T01:25:35.313Z,7.07
2023-04-10T01:26:35.296Z,7.11
2023-04-10T01:27:35.324Z,7.07
2023-04-10T01:28:35.274Z,7.07
2023-04-10T01:29:35.262Z,6.97
2023-04-10T01:30:35.263Z,7.06
2023-04-10T01:31:35.250Z,7.02
2023-04-10T01:32:35.273Z,7.07
2023-04-10T01:33:35.215Z,6.99
2023-04-10T01:34:35.242Z,7.10
2023-04-10T01:35:35.222Z,7.07
2023-04-10T01:36:35.208Z,7.05
2023-04-10T01:37:35.173Z,7.07
2023-04-10T01:38:35.158Z,6.96
2023-04-10T01:39:35.187Z,7.10
2023-04-10T01:40:35.154Z,7.02
2023-04-10T01:41:35.147Z,7.07
2023-04-10T01:42:35.126Z,6.99
2023-04-10T01:43:35.874Z,7.03
2023-04-10T01:44:35.117Z,6.96
2023-04-10T01:45:35.094Z,7.00
2023-04-10T01:46:35.090Z,6.99
2023-04-10T01:47:35.123Z,7.03
2023-04-10T01:48:35.179Z,6.96
2023-04-10T01:49:35.043Z,6.93
2023-04-10T01:50:35.064Z,6.93
2023-04-10T01:51:35.047Z,6.93
2023-04-10T01:52:35.073Z,6.89
2023-04-10T01:53:35.008Z,6.87
2023-04-10T01:54:34.986Z,6.87
2023-04-10T01:55:34.990Z,6.79
2023-04-10T01:56:34.998Z,6.78
2023-04-10T01:57:34.957Z,6.82
2023-04-10T01:58:34.966Z,6.82
2023-04-10T01:59:34.964Z,6.75
2023-04-10T02:00:35.121Z,6.85
2023-04-10T02:01:34.999Z,6.88
2023-04-10T02:02:35.057Z,6.88
2023-04-10T02:03:35.068Z,6.85
2023-04-10T02:04:35.030Z,6.78
2023-04-10T02:05:34.893Z,6.69
2023-04-10T02:06:34.880Z,6.72
2023-04-10T02:07:34.994Z,6.62
2023-04-10T02:08:42.851Z,6.77
2023-04-10T02:09:34.886Z,6.74
2023-04-10T02:10:34.812Z,6.72
2023-04-10T02:11:34.816Z,6.74
2023-04-10T02:12:34.795Z,6.72
2023-04-10T02:13:34.787Z,6.77
2023-04-10T02:14:34.774Z,6.77
2023-04-10T02:15:34.825Z,6.69
2023-04-10T02:16:34.964Z,6.70
2023-04-10T02:17:34.845Z,6.67
2023-04-10T02:18:34.742Z,6.72
2023-04-10T02:19:34.712Z,6.77
2023-04-10T02:20:34.700Z,6.70
2023-04-10T02:21:34.710Z,6.75
2023-04-10T02:22:34.673Z,6.66
2023-04-10T02:23:34.667Z,6.69
2023-04-10T02:24:34.658Z,6.67
2023-04-10T02:25:34.653Z,6.70
2023-04-10T02:26:34.658Z,6.75
2023-04-10T02:27:34.620Z,6.72
2023-04-10T02:28:34.610Z,6.64
2023-04-10T02:29:34.605Z,6.54
2023-04-10T02:30:34.609Z,6.49
2023-04-10T02:31:34.618Z,6.51
2023-04-10T02:32:34.598Z,6.57
2023-04-10T02:33:34.669Z,6.56
2023-04-10T02:34:34.547Z,6.54
2023-04-10T02:35:34.568Z,6.51
2023-04-10T02:36:34.874Z,6.45
2023-04-10T02:37:34.512Z,6.51
2023-04-10T02:38:34.543Z,6.42
2023-04-10T02:39:34.494Z,6.44
2023-04-10T02:40:34.496Z,6.38
2023-04-10T02:41:34.483Z,6.36
2023-04-10T02:42:34.456Z,6.30
2023-04-10T02:43:34.479Z,6.33
2023-04-10T02:44:34.435Z,6.27
2023-04-10T02:45:34.424Z,6.27
2023-04-10T02:46:34.458Z,6.22
2023-04-10T02:47:34.505Z,6.20
2023-04-10T02:48:34.664Z,6.27
2023-04-10T02:49:34.390Z,6.24
2023-04-10T02:50:34.413Z,6.20
2023-04-10T02:51:34.379Z,6.17
2023-04-10T02:52:34.352Z,6.19
2023-04-10T02:53:34.342Z,6.22
2023-04-10T02:54:34.328Z,6.28
2023-04-10T02:55:34.316Z,6.30
2023-04-10T02:56:34.312Z,6.26
2023-04-10T02:57:34.308Z,6.31
2023-04-10T02:58:34.280Z,6.24
2023-04-10T02:59:34.272Z,6.27
2023-04-10T03:00:34.265Z,6.28
2023-04-10T03:01:34.369Z,6.27
2023-04-10T03:02:34.387Z,6.20
2023-04-10T03:03:34.345Z,6.24
2023-04-10T03:04:34.269Z,6.26
2023-04-10T03:05:34.208Z,6.26
2023-04-10T03:06:34.193Z,6.31
2023-04-10T03:07:34.390Z,6.31
2023-04-10T03:08:34.170Z,6.24
2023-04-10T03:09:34.204Z,6.22
2023-04-10T03:10:34.166Z,6.20
2023-04-10T03:11:34.138Z,6.24
2023-04-10T03:12:34.155Z,6.30
2023-04-10T03:13:34.134Z,6.26
2023-04-10T03:14:34.102Z,6.20
2023-04-10T03:15:34.097Z,6.24
2023-04-10T03:16:34.217Z,6.26
2023-04-10T03:17:34.098Z,6.24
2023-04-10T03:18:34.094Z,6.20
2023-04-10T03:19:34.068Z,6.16
2023-04-10T03:20:34.050Z,6.12
2023-04-10T03:21:34.034Z,6.04
2023-04-10T03:22:34.029Z,6.12
2023-04-10T03:23:34.006Z,6.02
2023-04-10T03:24:34.038Z,6.04
2023-04-10T03:25:33.998Z,6.07
2023-04-10T03:26:34.026Z,6.09
2023-04-10T03:27:33.963Z,6.04
2023-04-10T03:28:33.975Z,5.97
2023-04-10T03:29:33.943Z,6.11
2023-04-10T03:30:33.928Z,6.01
2023-04-10T03:31:33.928Z,6.07
2023-04-10T03:32:33.907Z,6.01
2023-04-10T03:33:33.975Z,6.01
2023-04-10T03:34:33.912Z,6.01
2023-04-10T03:35:33.939Z,5.99
2023-04-10T03:36:33.856Z,6.02
2023-04-10T03:37:33.866Z,5.99
2023-04-10T03:38:33.851Z,6.07
2023-04-10T03:39:33.834Z,5.99
2023-04-10T03:40:33.813Z,5.94
2023-04-10T03:41:33.808Z,5.99
2023-04-10T03:42:33.798Z,5.97
2023-04-10T03:43:33.823Z,5.97
2023-04-10T03:44:33.778Z,5.93
2023-04-10T03:45:33.761Z,5.93
2023-04-10T03:46:33.765Z,5.86
2023-04-10T03:47:33.872Z,5.93
2023-04-10T03:48:33.728Z,5.84
2023-04-10T03:49:33.719Z,5.86
2023-04-10T03:50:33.702Z,5.98
2023-04-10T03:51:33.732Z,5.87
2023-04-10T03:52:33.681Z,5.90
2023-04-10T03:53:35.130Z,5.90
2023-04-10T03:54:33.656Z,5.86
2023-04-10T03:55:33.649Z,5.82
2023-04-10T03:56:33.643Z,5.84
2023-04-10T03:57:33.635Z,5.82
2023-04-10T03:58:33.613Z,5.84
2023-04-10T03:59:38.640Z,5.86
2023-04-10T04:00:34.600Z,5.84
2023-04-10T04:01:33.621Z,5.82
2023-04-10T04:02:33.747Z,5.87
2023-04-10T04:03:33.674Z,5.84
2023-04-10T04:04:33.653Z,5.90
2023-04-10T04:05:33.538Z,5.83
2023-04-10T04:06:33.515Z,5.76
2023-04-10T04:07:33.528Z,5.84
2023-04-10T04:08:33.508Z,5.82
2023-04-10T04:09:33.602Z,5.76
2023-04-10T04:10:33.482Z,5.84
2023-04-10T04:11:33.467Z,5.84
2023-04-10T04:12:33.467Z,5.84
2023-04-10T04:13:33.448Z,5.89
2023-04-10T04:14:33.429Z,5.86
2023-04-10T04:15:33.416Z,5.87
2023-04-10T04:16:33.448Z,5.87
2023-04-10T04:17:33.445Z,5.89
2023-04-10T04:18:33.384Z,5.83
2023-04-10T04:19:33.373Z,5.82
2023-04-10T04:20:33.364Z,5.84
2023-04-10T04:21:33.388Z,5.90
2023-04-10T04:22:33.348Z,5.86
2023-04-10T04:23:33.346Z,5.84
2023-04-10T04:24:33.323Z,5.84
2023-04-10T04:25:33.309Z,5.84
2023-04-10T04:26:33.292Z,5.84
2023-04-10T04:27:33.302Z,5.90
2023-04-10T04:28:33.333Z,5.90
2023-04-10T04:29:33.284Z,5.84
2023-04-10T04:30:33.249Z,5.86
2023-04-10T04:31:33.306Z,5.90
2023-04-10T04:32:33.306Z,5.94
2023-04-10T04:33:33.229Z,5.90
2023-04-10T04:34:33.222Z,5.94
2023-04-10T04:35:33.230Z,5.82
2023-04-10T04:36:33.184Z,5.91
2023-04-10T04:37:33.168Z,5.91
2023-04-10T04:38:33.165Z,5.98
2023-04-10T04:39:33.189Z,5.97
2023-04-10T04:40:33.235Z,5.97
2023-04-10T04:41:33.131Z,5.94
2023-04-10T04:42:33.123Z,5.97
2023-04-10T04:43:33.121Z,5.93
2023-04-10T04:44:33.121Z,5.97
2023-04-10T04:45:33.083Z,6.04
2023-04-10T04:46:33.071Z,6.02
2023-04-10T04:47:33.099Z,5.97
2023-04-10T04:48:33.070Z,6.01
2023-04-10T04:49:33.064Z,6.04
2023-04-10T04:50:33.027Z,6.02
2023-04-10T04:51:33.027Z,6.08
2023-04-10T04:52:33.019Z,6.08
2023-04-10T04:53:32.997Z,6.07
2023-04-10T04:54:33.008Z,6.08
2023-04-10T04:55:33.008Z,6.09
2023-04-10T04:56:32.961Z,6.08
2023-04-10T04:57:32.952Z,6.07
2023-04-10T04:58:32.971Z,6.09
2023-04-10T04:59:32.937Z,6.02
2023-04-10T05:00:32.967Z,6.08
2023-04-10T05:01:33.018Z,6.05
2023-04-10T05:02:33.061Z,6.05
2023-04-10T05:03:33.204Z,6.14
2023-04-10T05:04:32.883Z,6.19
2023-04-10T05:05:32.902Z,6.20
2023-04-10T05:06:32.850Z,6.24
2023-04-10T05:07:33.059Z,6.22
2023-04-10T05:08:32.832Z,6.24
2023-04-10T05:09:32.840Z,6.24
2023-04-10T05:10:32.821Z,6.22
2023-04-10T05:11:32.817Z,6.27
2023-04-10T05:12:32.784Z,6.26
2023-04-10T05:13:32.764Z,6.36
2023-04-10T05:14:32.780Z,6.36
2023-04-10T05:15:32.802Z,6.33
2023-04-10T05:16:32.744Z,6.31
2023-04-10T05:17:32.793Z,6.24
2023-04-10T05:18:32.744Z,6.33
2023-04-10T05:19:32.757Z,6.30
2023-04-10T05:20:32.686Z,6.26
2023-04-10T05:21:32.679Z,6.24
2023-04-10T05:22:32.682Z,6.28
2023-04-10T05:23:32.678Z,6.28
2023-04-10T05:24:32.704Z,6.33
2023-04-10T05:25:32.639Z,6.27
2023-04-10T05:26:32.632Z,6.39
2023-04-10T05:27:32.644Z,6.46
2023-04-10T05:28:32.908Z,6.56
2023-04-10T05:29:32.602Z,6.64
2023-04-10T05:30:32.576Z,6.69
2023-04-10T05:31:32.720Z,6.75
2023-04-10T05:32:32.632Z,6.81
2023-04-10T05:33:32.564Z,6.88
2023-04-10T05:34:32.552Z,6.96
2023-04-10T05:35:32.574Z,7.06
2023-04-10T05:36:32.523Z,7.13
2023-04-10T05:37:32.622Z,7.20
2023-04-10T05:38:32.510Z,7.31
2023-04-10T05:39:32.493Z,7.35
2023-04-10T05:40:32.513Z,7.50
2023-04-10T05:41:32.472Z,7.57
2023-04-10T05:42:32.454Z,7.73
2023-04-10T05:43:32.483Z,7.83
2023-04-10T05:44:32.433Z,7.87
2023-04-10T05:45:32.414Z,7.97
2023-04-10T05:46:32.483Z,8.00
2023-04-10T05:47:32.437Z,8.13
2023-04-10T05:48:32.384Z,8.26
2023-04-10T05:49:32.376Z,8.38
2023-04-10T05:50:32.363Z,8.53
2023-04-10T05:51:32.360Z,8.64
2023-04-10T05:52:32.344Z,8.82
2023-04-10T05:53:32.356Z,8.94
2023-04-10T05:54:32.335Z,9.02
2023-04-10T05:55:32.345Z,9.25
2023-04-10T05:56:32.293Z,9.29
2023-04-10T05:57:32.515Z,9.59
2023-04-10T05:58:32.271Z,9.65
2023-04-10T05:59:32.321Z,9.62
2023-04-10T06:00:32.279Z,9.77
2023-04-10T06:01:32.238Z,9.94
2023-04-10T06:02:32.496Z,10.17
2023-04-10T06:03:32.433Z,10.37
2023-04-10T06:04:32.312Z,10.48
2023-04-10T06:05:32.206Z,10.72
2023-04-10T06:06:32.185Z,10.84
2023-04-10T06:07:32.285Z,10.99
2023-04-10T06:08:32.259Z,11.18
2023-04-10T06:09:32.890Z,11.40
2023-04-10T06:10:32.432Z,11.62
2023-04-10T06:11:32.246Z,11.87
2023-04-10T06:12:32.944Z,12.22
2023-04-10T06:13:32.441Z,12.54
2023-04-10T06:14:32.095Z,12.86
2023-04-10T06:15:32.148Z,13.05
2023-04-10T06:16:32.183Z,12.76
2023-04-10T06:17:32.108Z,11.69
2023-04-10T06:18:32.325Z,12.12
2023-04-10T06:19:32.055Z,12.49
2023-04-10T06:20:32.037Z,12.82
2023-04-10T06:21:32.029Z,12.98
2023-04-10T06:22:32.023Z,13.42
2023-04-10T06:23:32.204Z,13.79
2023-04-10T06:24:31.989Z,14.51
2023-04-10T06:25:31.975Z,14.89
2023-04-10T06:26:31.992Z,15.19
2023-04-10T06:27:31.960Z,15.51
2023-04-10T06:28:31.953Z,15.82
2023-04-10T06:29:31.937Z,15.95
2023-04-10T06:30:31.917Z,16.05
2023-04-10T06:31:32.060Z,16.28
2023-04-10T06:32:31.933Z,16.76
2023-04-10T06:33:31.880Z,17.24
2023-04-10T06:34:31.872Z,17.64
2023-04-10T06:35:31.913Z,18.00
2023-04-10T06:36:31.849Z,18.40
2023-04-10T06:37:31.846Z,18.86
2023-04-10T06:38:31.856Z,19.00
2023-04-10T06:39:31.828Z,18.41
2023-04-10T06:40:31.836Z,18.26
2023-04-10T06:41:31.789Z,18.31
2023-04-10T06:42:31.779Z,17.86
2023-04-10T06:43:31.774Z,17.67
2023-04-10T06:44:31.764Z,17.63
2023-04-10T06:45:31.762Z,17.52
2023-04-10T06:46:31.817Z,17.80
2023-04-10T06:47:31.989Z,18.38
2023-04-10T06:48:31.718Z,18.74
2023-04-10T06:49:31.716Z,19.18
2023-04-10T06:50:33.449Z,18.86
2023-04-10T06:51:31.689Z,18.93
2023-04-10T06:52:31.674Z,19.31
2023-04-10T06:53:31.665Z,19.69
2023-04-10T06:54:31.652Z,20.14
2023-04-10T06:55:31.662Z,20.37
2023-04-10T06:56:31.639Z,20.48
2023-04-10T06:57:31.616Z,20.72
2023-04-10T06:58:31.609Z,21.33
2023-04-10T06:59:31.606Z,21.45
2023-04-10T07:00:31.601Z,21.69
2023-04-10T07:01:31.577Z,22.15
2023-04-10T07:02:31.637Z,22.50
2023-04-10T07:03:31.640Z,22.78
2023-04-10T07:04:31.556Z,23.12
2023-04-10T07:05:31.533Z,23.36
2023-04-10T07:06:31.526Z,22.96
2023-04-10T07:07:31.539Z,23.03
2023-04-10T07:08:31.493Z,23.25
2023-04-10T07:09:31.486Z,23.25
2023-04-10T07:10:31.482Z,23.48
2023-04-10T07:11:31.799Z,23.92
2023-04-10T07:12:31.449Z,24.06
2023-04-10T07:13:31.452Z,24.14
2023-04-10T07:14:31.428Z,24.20
2023-04-10T07:15:31.450Z,24.26
2023-04-10T07:16:31.429Z,24.60
2023-04-10T07:17:31.430Z,24.63
2023-04-10T07:18:31.580Z,24.57
2023-04-10T07:19:31.460Z,24.73
2023-04-10T07:20:31.411Z,24.60
2023-04-10T07:21:31.353Z,24.36
2023-04-10T07:22:31.363Z,24.28
2023-04-10T07:23:31.329Z,24.38
2023-04-10T07:24:31.321Z,24.54
2023-04-10T07:25:31.306Z,24.32
2023-04-10T07:26:31.357Z,24.21
2023-04-10T07:27:31.312Z,23.77
2023-04-10T07:28:31.328Z,23.31
2023-04-10T07:29:31.267Z,23.03
2023-04-10T07:30:31.267Z,22.88
2023-04-10T07:31:31.360Z,22.78
2023-04-10T07:32:31.324Z,22.85
2023-04-10T07:33:31.266Z,22.96
2023-04-10T07:34:31.222Z,23.09
2023-04-10T07:35:31.322Z,23.15
2023-04-10T07:36:31.190Z,23.24
2023-04-10T07:37:31.959Z,23.63
2023-04-10T07:38:31.185Z,24.39
2023-04-10T07:39:31.166Z,25.17
2023-04-10T07:40:31.174Z,25.70
2023-04-10T07:41:31.193Z,25.81
2023-04-10T07:42:31.121Z,25.54
2023-04-10T07:43:31.116Z,24.93
2023-04-10T07:44:31.104Z,23.63
2023-04-10T07:45:31.127Z,23.55
2023-04-10T07:46:31.110Z,23.59
2023-04-10T07:47:31.134Z,23.87
2023-04-10T07:48:31.060Z,24.11
2023-04-10T07:49:31.137Z,24.57
2023-04-10T07:50:31.037Z,25.28
2023-04-10T07:51:31.053Z,25.44
2023-04-10T07:52:31.031Z,25.63
2023-04-10T07:53:31.009Z,25.65
2023-04-10T07:54:30.994Z,25.54
2023-04-10T07:55:30.978Z,25.83
2023-04-10T07:56:30.995Z,26.18
2023-04-10T07:57:30.969Z,25.95
2023-04-10T07:58:30.965Z,25.54
2023-04-10T07:59:30.958Z,25.62
2023-04-10T08:00:30.933Z,25.83
2023-04-10T08:01:30.974Z,25.98
2023-04-10T08:02:31.041Z,26.05
2023-04-10T08:03:31.113Z,26.37
2023-04-10T08:04:31.181Z,26.63
2023-04-10T08:05:31.149Z,27.26
2023-04-10T08:06:30.877Z,27.64
2023-04-10T08:07:30.886Z,27.92
2023-04-10T08:08:30.954Z,27.92
2023-04-10T08:09:30.871Z,27.96
2023-04-10T08:10:30.824Z,28.04
2023-04-10T08:11:30.873Z,28.26
2023-04-10T08:12:30.806Z,28.17
2023-04-10T08:13:30.785Z,28.15
2023-04-10T08:14:30.775Z,28.25
2023-04-10T08:15:30.765Z,28.48
2023-04-10T08:16:30.785Z,29.23
2023-04-10T08:17:30.790Z,29.45
2023-04-10T08:18:30.754Z,29.61
2023-04-10T08:19:30.717Z,29.41
2023-04-10T08:20:30.713Z,29.45
2023-04-10T08:22:37.786Z,29.38
2023-04-10T08:23:30.670Z,29.91
2023-04-10T08:24:30.665Z,30.53
2023-04-10T08:25:30.654Z,31.24
2023-04-10T08:26:30.657Z,31.78
2023-04-10T08:27:30.658Z,32.00
2023-04-10T08:28:30.624Z,31.73
2023-04-10T08:29:30.610Z,31.21
2023-04-10T08:30:30.647Z,30.77
2023-04-10T08:31:30.778Z,30.19
2023-04-10T08:32:31.020Z,29.81
2023-04-10T08:33:30.572Z,29.90
2023-04-10T08:34:30.558Z,29.50
2023-04-10T08:35:30.540Z,29.13
2023-04-10T08:36:30.561Z,29.42
2023-04-10T08:37:30.537Z,29.71
2023-04-10T08:38:30.533Z,30.23
2023-04-10T08:39:30.523Z,30.84
2023-04-10T08:40:30.498Z,31.29
2023-04-10T08:41:30.480Z,31.36
2023-04-10T08:42:30.485Z,31.46
2023-04-10T08:43:30.469Z,31.49
2023-04-10T08:44:30.496Z,31.05
2023-04-10T08:45:30.445Z,31.06
2023-04-10T08:46:30.514Z,31.39
2023-04-10T08:47:30.457Z,31.71
2023-04-10T08:48:30.403Z,31.96
2023-04-10T08:49:30.407Z,32.08
2023-04-10T08:50:30.401Z,32.60
2023-04-10T08:51:30.442Z,32.97
2023-04-10T08:52:30.367Z,32.90
2023-04-10T08:53:30.357Z,32.43
2023-04-10T08:54:30.376Z,31.97
2023-04-10T08:55:30.349Z,30.87
2023-04-10T08:56:30.324Z,30.43
2023-04-10T08:57:30.320Z,30.12
2023-04-10T08:58:30.321Z,29.97
2023-04-10T08:59:30.500Z,30.23
2023-04-10T09:00:30.308Z,30.39
2023-04-10T09:01:30.320Z,30.47
2023-04-10T09:02:30.434Z,30.40
2023-04-10T09:03:30.500Z,30.35
2023-04-10T09:04:30.481Z,30.72
2023-04-10T09:05:30.228Z,31.36
2023-04-10T09:06:30.222Z,31.10
2023-04-10T09:07:30.217Z,31.10
2023-04-10T09:08:30.197Z,31.18
2023-04-10T09:09:30.201Z,30.92
2023-04-10T09:10:31.196Z,30.91
2023-04-10T09:11:30.170Z,30.84
2023-04-10T09:12:30.162Z,30.55
2023-04-10T09:13:30.166Z,30.61
2023-04-10T09:14:30.140Z,30.21
2023-04-10T09:15:31.109Z,30.09
2023-04-10T09:16:30.471Z,29.41
2023-04-10T09:17:30.161Z,29.36
2023-04-10T09:18:30.095Z,29.72
2023-04-10T09:19:30.090Z,29.91
2023-04-10T09:20:31.003Z,29.61
2023-04-10T09:21:30.079Z,28.74
2023-04-10T09:22:30.062Z,28.67
2023-04-10T09:23:30.044Z,28.97
2023-04-10T09:24:30.044Z,28.89
2023-04-10T09:25:30.027Z,29.16
2023-04-10T09:26:30.038Z,29.49
2023-04-10T09:27:30.039Z,30.05
2023-04-10T09:28:29.999Z,30.09
2023-04-10T09:29:30.000Z,29.72
2023-04-10T09:30:29.997Z,29.66
2023-04-10T09:31:29.969Z,29.95
2023-04-10T09:32:30.508Z,30.51
2023-04-10T09:33:29.987Z,31.37
2023-04-10T09:34:29.939Z,31.87
2023-04-10T09:35:29.917Z,31.85
2023-04-10T09:36:29.922Z,31.78
2023-04-10T09:37:29.906Z,32.14
2023-04-10T09:38:29.901Z,32.30
2023-04-10T09:39:29.876Z,31.78
2023-04-10T09:40:29.867Z,30.73
2023-04-10T09:41:29.853Z,29.82
2023-04-10T09:42:29.890Z,29.45
2023-04-10T09:43:29.848Z,28.84
2023-04-10T09:44:29.852Z,29.08
2023-04-10T09:45:29.817Z,29.79
2023-04-10T09:46:29.832Z,30.30
2023-04-10T09:47:29.839Z,30.35
2023-04-10T09:48:29.806Z,30.05
2023-04-10T09:49:29.777Z,30.03
2023-04-10T09:50:29.763Z,29.82
2023-04-10T09:51:29.774Z,29.08
2023-04-10T09:52:29.759Z,28.81
2023-04-10T09:53:29.728Z,28.96
2023-04-10T09:54:29.715Z,29.39
2023-04-10T09:55:29.716Z,29.49
2023-04-10T09:56:29.700Z,29.27
2023-04-10T09:57:29.766Z,29.41
2023-04-10T09:58:29.827Z,29.50
2023-04-10T09:59:29.669Z,29.59
2023-04-10T10:00:29.668Z,29.51
2023-04-10T10:01:29.678Z,29.45
2023-04-10T10:02:29.829Z,29.61
2023-04-10T10:03:29.705Z,29.82
2023-04-10T10:04:29.633Z,30.55
2023-04-10T10:05:29.671Z,30.99
2023-04-10T10:06:29.604Z,30.85
2023-04-10T10:07:29.618Z,30.55
2023-04-10T10:08:29.625Z,30.27
2023-04-10T10:09:29.608Z,30.16
2023-04-10T10:10:29.591Z,30.55
2023-04-10T10:11:29.543Z,30.77
2023-04-10T10:12:29.586Z,31.44
2023-04-10T10:13:29.538Z,32.12
2023-04-10T10:14:29.536Z,32.12
2023-04-10T10:15:29.507Z,32.33
2023-04-10T10:16:29.518Z,32.38
2023-04-10T10:17:29.511Z,32.33
2023-04-10T10:18:37.208Z,32.75
2023-04-10T10:19:29.534Z,33.32
2023-04-10T10:20:29.458Z,33.86
2023-04-10T10:21:29.445Z,34.11
2023-04-10T10:22:29.452Z,34.20
2023-04-10T10:23:29.425Z,34.67
2023-04-10T10:24:29.499Z,35.39
2023-04-10T10:25:29.416Z,35.82
2023-04-10T10:26:29.426Z,36.09
2023-04-10T10:27:29.398Z,36.54
2023-04-10T10:28:29.381Z,36.89
2023-04-10T10:29:29.404Z,36.84
2023-04-10T10:30:30.716Z,36.79
2023-04-10T10:31:29.410Z,36.18
2023-04-10T10:32:29.368Z,35.92
2023-04-10T10:33:29.330Z,36.12
2023-04-10T10:34:29.326Z,36.30
2023-04-10T10:35:30.047Z,36.28
2023-04-10T10:36:29.552Z,36.59
2023-04-10T10:37:29.984Z,37.06
2023-04-10T10:38:29.297Z,35.29
2023-04-10T10:39:29.267Z,33.22
2023-04-10T10:40:29.257Z,32.51
2023-04-10T10:41:29.253Z,31.78
2023-04-10T10:42:29.248Z,31.85
2023-04-10T10:43:29.234Z,32.90
2023-04-10T10:44:29.234Z,33.98
2023-04-10T10:45:29.286Z,34.78
2023-04-10T10:46:29.217Z,35.15
2023-04-10T10:47:29.231Z,33.76
2023-04-10T10:48:29.208Z,32.95
2023-04-10T10:49:29.174Z,32.74
2023-04-10T10:50:29.158Z,32.70
2023-04-10T10:51:29.172Z,32.08
2023-04-10T10:52:29.136Z,31.74
2023-04-10T10:53:29.131Z,31.87
2023-04-10T10:54:29.125Z,32.07
2023-04-10T10:55:29.277Z,31.97
2023-04-10T10:56:29.120Z,32.29
2023-04-10T10:57:29.104Z,31.43
2023-04-10T10:58:29.078Z,31.40
2023-04-10T10:59:29.071Z,31.85
2023-04-10T11:00:30.034Z,31.58
2023-04-10T11:01:29.108Z,31.47
2023-04-10T11:02:29.226Z,31.93
2023-04-10T11:03:29.141Z,32.85
2023-04-10T11:04:29.017Z,33.23
2023-04-10T11:05:29.009Z,33.68
2023-04-10T11:06:28.998Z,33.81
2023-04-10T11:07:29.006Z,33.14
2023-04-10T11:08:28.977Z,32.12
2023-04-10T11:09:28.973Z,31.42
2023-04-10T11:10:29.386Z,30.40
2023-04-10T11:11:28.947Z,29.22
2023-04-10T11:12:28.954Z,28.62
2023-04-10T11:13:28.932Z,28.98
2023-04-10T11:14:29.135Z,29.68
2023-04-10T11:15:28.911Z,29.36
2023-04-10T11:16:28.974Z,29.44
2023-04-10T11:17:29.001Z,29.63
2023-04-10T11:18:28.905Z,29.81
2023-04-10T11:19:28.878Z,29.51
2023-04-10T11:20:28.854Z,29.38
2023-04-10T11:21:28.891Z,29.26
2023-04-10T11:22:28.975Z,29.63
2023-04-10T11:23:28.849Z,30.05
2023-04-10T11:24:28.815Z,30.63
2023-04-10T11:25:28.814Z,30.97
2023-04-10T11:26:28.798Z,30.85
2023-04-10T11:27:28.803Z,30.12
2023-04-10T11:28:28.777Z,29.45
2023-04-10T11:29:28.771Z,29.10
2023-04-10T11:30:28.776Z,28.27
2023-04-10T11:31:28.809Z,26.90
2023-04-10T11:32:28.769Z,26.10
2023-04-10T11:33:28.817Z,25.84
2023-04-10T11:34:28.733Z,25.68
2023-04-10T11:35:28.748Z,26.19
2023-04-10T11:36:28.705Z,26.84
2023-04-10T11:37:28.705Z,26.31
2023-04-10T11:38:28.753Z,26.31
2023-04-10T11:39:28.676Z,26.73
2023-04-10T11:40:28.660Z,26.71
2023-04-10T11:41:28.682Z,26.68
2023-04-10T11:42:28.637Z,26.92
2023-04-10T11:43:28.675Z,27.45
2023-04-10T11:44:28.604Z,27.82
2023-04-10T11:45:29.098Z,27.35
2023-04-10T11:46:28.715Z,27.35
2023-04-10T11:47:28.633Z,27.95
2023-04-10T11:48:28.570Z,28.54
2023-04-10T11:49:28.595Z,28.75
2023-04-10T11:50:28.580Z,28.81
2023-04-10T11:51:28.544Z,28.74
2023-04-10T11:52:28.697Z,28.97
2023-04-10T11:53:28.526Z,29.24
2023-04-10T11:54:28.605Z,29.47
2023-04-10T11:55:28.500Z,29.50
2023-04-10T11:56:28.488Z,28.63
2023-04-10T11:57:28.512Z,27.83
2023-04-10T11:58:28.484Z,27.52
2023-04-10T11:59:28.458Z,27.03
2023-04-10T12:00:28.460Z,26.81
2023-04-10T12:01:28.442Z,26.41
2023-04-10T12:02:28.542Z,25.55
2023-04-10T12:03:28.572Z,25.59
2023-04-10T12:04:28.722Z,26.13
2023-04-10T12:05:28.397Z,26.48
2023-04-10T12:06:28.411Z,26.93
2023-04-10T12:07:30.228Z,27.15
2023-04-10T12:08:28.369Z,26.75
2023-04-10T12:09:28.375Z,26.19
2023-04-10T12:10:28.347Z,25.96
2023-04-10T12:11:28.427Z,26.23
2023-04-10T12:12:28.323Z,25.99
2023-04-10T12:13:28.317Z,25.98
2023-04-10T12:14:28.316Z,25.63
2023-04-10T12:15:28.363Z,25.40
2023-04-10T12:16:29.055Z,25.35
2023-04-10T12:17:28.326Z,25.14
2023-04-10T12:18:28.295Z,24.99
2023-04-10T12:19:28.257Z,25.16
2023-04-10T12:20:28.239Z,25.07
2023-04-10T12:21:28.238Z,25.35
2023-04-10T12:22:28.259Z,25.69
2023-04-10T12:23:28.217Z,25.78
2023-04-10T12:24:28.211Z,25.50
2023-04-10T12:25:28.193Z,25.63
2023-04-10T12:26:28.586Z,25.78
2023-04-10T12:27:28.180Z,25.77
2023-04-10T12:28:28.160Z,25.44
2023-04-10T12:29:28.169Z,25.08
2023-04-10T12:30:28.177Z,24.38
2023-04-10T12:31:28.208Z,24.50
2023-04-10T12:32:28.162Z,24.78
2023-04-10T12:33:28.116Z,24.69
2023-04-10T12:34:28.122Z,24.39
2023-04-10T12:35:28.122Z,23.81
2023-04-10T12:36:28.095Z,23.43
2023-04-10T12:37:28.122Z,23.73
2023-04-10T12:38:28.142Z,23.96
2023-04-10T12:39:28.054Z,24.21
2023-04-10T12:40:28.045Z,24.18
2023-04-10T12:41:28.036Z,23.68
2023-04-10T12:42:28.578Z,22.63
2023-04-10T12:43:28.030Z,22.45
2023-04-10T12:44:28.008Z,22.47
2023-04-10T12:45:27.996Z,22.62
2023-04-10T12:46:28.019Z,22.90
2023-04-10T12:47:28.000Z,23.34
2023-04-10T12:48:27.962Z,23.65
2023-04-10T12:49:27.957Z,23.48
2023-04-10T12:50:27.981Z,23.03
2023-04-10T12:51:27.934Z,22.87
2023-04-10T12:52:27.931Z,22.76
2023-04-10T12:53:27.919Z,22.62
2023-04-10T12:54:27.926Z,22.55
2023-04-10T12:55:27.891Z,22.44
2023-04-10T12:56:27.946Z,22.55
2023-04-10T12:57:27.969Z,22.90
2023-04-10T12:58:27.862Z,23.15
2023-04-10T12:59:27.869Z,23.21
2023-04-10T13:00:27.866Z,22.88
2023-04-10T13:01:27.902Z,22.62
2023-04-10T13:02:28.002Z,22.66
2023-04-10T13:03:27.956Z,22.80
2023-04-10T13:04:27.898Z,22.62
2023-04-10T13:05:27.802Z,22.18